Time;durP1;ratioP1;P1;durP2;ratioP2;P2;SDS_P1;SDS_P2;PMS_P1;PMS_P2;Temp;Humidity;BMP_temperature;BMP_pressure;BME280_temperature;BME280_humidity;BME280_pressure;Samples;Min_cycle;Max_cycle;Signal;HPM_P1;HPM_P2
2022/11/09 00:00:43;;;;;;;2.70;1.10;;;15.60;85.60;;;;;;5051470;28;20032;-73
2022/11/09 00:03:09;;;;;;;1.90;1.10;;;15.60;85.60;;;;;;5065289;28;20134;-73
2022/11/09 00:05:35;;;;;;;2.55;0.93;;;15.60;85.60;;;;;;5066113;28;20025;-73
2022/11/09 00:08:03;;;;;;;2.78;1.10;;;15.60;85.70;;;;;;5064394;28;20123;-74
2022/11/09 00:10:29;;;;;;;2.50;1.30;;;15.60;85.70;;;;;;5059161;28;20112;-74
2022/11/09 00:12:54;;;;;;;3.03;1.23;;;15.60;85.70;;;;;;5056816;28;20434;-74
2022/11/09 00:15:20;;;;;;;3.95;1.10;;;15.60;85.80;;;;;;5063489;28;20034;-73
2022/11/09 00:17:45;;;;;;;1.35;1.00;;;15.60;85.70;;;;;;5045651;28;20043;-74
2022/11/09 00:20:11;;;;;;;2.33;1.00;;;15.60;85.60;;;;;;5061334;28;20032;-73
2022/11/09 00:22:37;;;;;;;2.20;1.15;;;15.70;85.40;;;;;;5060667;28;20120;-74
2022/11/09 00:25:02;;;;;;;2.55;1.20;;;15.70;85.30;;;;;;5060236;28;20020;-73
2022/11/09 00:27:28;;;;;;;2.70;1.20;;;15.70;84.80;;;;;;5045343;28;20996;-74
2022/11/09 00:29:53;;;;;;;2.70;1.23;;;15.70;84.80;;;;;;5060921;28;20051;-74
2022/11/09 00:32:19;;;;;;;2.20;1.10;;;15.70;84.80;;;;;;5046826;28;20025;-74
2022/11/09 00:34:44;;;;;;;2.38;1.10;;;15.70;85.00;;;;;;5060635;28;20036;-73
2022/11/09 00:37:10;;;;;;;1.50;0.88;;;15.70;84.80;;;;;;5045852;28;20040;-73
2022/11/09 00:39:36;;;;;;;1.83;1.00;;;15.70;85.20;;;;;;5060681;28;20119;-74
2022/11/09 00:42:01;;;;;;;1.83;1.08;;;15.70;85.20;;;;;;5045366;28;20451;-75
2022/11/09 00:44:27;;;;;;;2.60;1.20;;;15.70;85.90;;;;;;5044777;28;20496;-73
2022/11/09 00:46:52;;;;;;;1.73;1.08;;;15.70;85.50;;;;;;5059912;28;20652;-73
2022/11/09 00:49:18;;;;;;;2.58;1.15;;;15.70;85.40;;;;;;5063691;28;20024;-73
2022/11/09 00:51:43;;;;;;;2.08;0.95;;;15.70;85.40;;;;;;5065898;28;20033;-74
2022/11/09 00:54:09;;;;;;;1.33;0.80;;;15.60;85.30;;;;;;5064049;28;20064;-77
2022/11/09 00:56:35;;;;;;;1.80;1.00;;;15.60;86.10;;;;;;5048742;28;20044;-75
2022/11/09 00:59:00;;;;;;;1.70;1.10;;;15.70;85.60;;;;;;5043458;28;20021;-73
2022/11/09 01:01:26;;;;;;;1.42;1.00;;;15.70;85.70;;;;;;5051659;28;20037;-74
2022/11/09 01:03:51;;;;;;;1.55;0.90;;;15.60;85.60;;;;;;5060107;28;20037;-73
2022/11/09 01:06:20;;;;;;;1.48;0.90;;;15.60;85.70;;;;;;5043059;28;20025;-74
2022/11/09 01:08:46;;;;;;;2.15;1.15;;;15.60;85.80;;;;;;5045062;28;20526;-73
2022/11/09 01:11:15;;;;;;;2.28;1.02;;;15.60;85.80;;;;;;5044431;28;20029;-75
2022/11/09 01:13:41;;;;;;;1.73;0.93;;;15.60;85.80;;;;;;5062761;28;20089;-74
2022/11/09 01:16:13;;;;;;;2.63;1.10;;;15.60;85.80;;;;;;5054902;28;20116;-74
2022/11/09 01:18:39;;;;;;;1.48;0.90;;;15.60;85.90;;;;;;5044996;28;20044;-74
2022/11/09 01:21:08;;;;;;;2.20;1.00;;;15.60;86.00;;;;;;5045189;28;20036;-75
2022/11/09 01:23:33;;;;;;;1.63;1.10;;;15.60;86.00;;;;;;5060250;28;20040;-75
2022/11/09 01:26:01;;;;;;;2.38;1.10;;;15.60;85.90;;;;;;5043874;28;20404;-73
2022/11/09 01:28:27;;;;;;;2.38;0.88;;;15.60;85.80;;;;;;5060497;28;20029;-73
2022/11/09 01:30:53;;;;;;;2.05;1.10;;;15.60;85.60;;;;;;5051135;28;20032;-73
2022/11/09 01:33:19;;;;;;;1.88;1.02;;;15.60;85.40;;;;;;5064487;28;20085;-73
2022/11/09 01:35:45;;;;;;;2.42;0.90;;;15.70;85.40;;;;;;5067564;28;20036;-73
2022/11/09 01:38:11;;;;;;;2.55;0.93;;;15.70;85.10;;;;;;5068879;28;20384;-73
2022/11/09 01:40:38;;;;;;;1.92;1.00;;;15.70;85.10;;;;;;5066931;28;20234;-74
2022/11/09 01:43:19;;;;;;;2.25;1.00;;;15.70;85.10;;;;;;5065106;28;20067;-74
2022/11/09 01:45:50;;;;;;;1.92;0.80;;;15.70;85.10;;;;;;5066850;28;20066;-74
2022/11/09 01:48:53;;;;;;;2.10;1.00;;;15.70;85.00;;;;;;5085842;28;20032;-73
2022/11/09 01:51:32;;;;;;;1.80;1.00;;;15.70;85.30;;;;;;5048412;28;20029;-74
2022/11/09 01:54:32;;;;;;;2.42;1.08;;;15.70;85.50;;;;;;5046455;28;20029;-74
2022/11/09 01:57:02;;;;;;;1.20;0.90;;;15.70;85.40;;;;;;5046517;28;20037;-74
2022/11/09 01:59:32;;;;;;;1.90;1.00;;;15.70;85.60;;;;;;5048012;28;20112;-74
2022/11/09 02:02:01;;;;;;;2.70;1.10;;;15.60;85.60;;;;;;5061219;28;20044;-74
2022/11/09 02:04:48;;;;;;;2.10;0.93;;;15.70;85.70;;;;;;5067731;28;20037;-74
2022/11/09 02:07:14;;;;;;;2.35;0.90;;;15.60;85.80;;;;;;5066951;28;20062;-73
2022/11/09 02:10:00;;;;;;;1.70;1.00;;;15.60;85.90;;;;;;5067889;28;20136;-74
2022/11/09 02:12:28;;;;;;;1.50;0.82;;;15.60;85.70;;;;;;5067437;28;20024;-75
2022/11/09 02:14:55;;;;;;;1.88;1.00;;;15.60;85.80;;;;;;5065416;28;20044;-74
2022/11/09 02:17:21;;;;;;;1.23;0.88;;;15.60;85.90;;;;;;5058304;28;20032;-73
2022/11/09 02:19:46;;;;;;;1.75;0.88;;;15.60;85.90;;;;;;5050111;28;20074;-74
2022/11/09 02:22:12;;;;;;;1.33;0.90;;;15.60;85.90;;;;;;5065269;28;20511;-74
2022/11/09 02:24:38;;;;;;;1.45;0.80;;;15.60;86.00;;;;;;5062317;28;20085;-74
2022/11/09 02:27:05;;;;;;;2.00;1.00;;;15.50;86.00;;;;;;5066262;28;20395;-74
2022/11/09 02:29:37;;;;;;;1.13;0.90;;;15.60;86.00;;;;;;5066536;28;20063;-74
2022/11/09 02:32:08;;;;;;;1.08;0.80;;;15.60;86.00;;;;;;5067730;28;20020;-74
2022/11/09 02:34:34;;;;;;;1.23;0.90;;;15.60;86.00;;;;;;5067346;28;20128;-74
2022/11/09 02:36:59;;;;;;;1.90;0.90;;;15.60;86.10;;;;;;5060339;28;20036;-74
2022/11/09 02:39:27;;;;;;;2.22;1.10;;;15.60;86.00;;;;;;5065936;28;20026;-74
2022/11/09 02:42:01;;;;;;;1.00;0.80;;;15.60;85.80;;;;;;5067295;28;20032;-74
2022/11/09 02:44:29;;;;;;;1.98;0.88;;;15.70;85.70;;;;;;5066687;28;20036;-74
2022/11/09 02:46:54;;;;;;;1.35;0.80;;;15.70;85.40;;;;;;5066012;28;20020;-74
2022/11/09 02:49:20;;;;;;;1.52;0.80;;;15.70;85.20;;;;;;5066066;28;20093;-74
2022/11/09 02:51:46;;;;;;;1.23;0.90;;;15.70;85.20;;;;;;5065711;28;20020;-75
2022/11/09 02:54:12;;;;;;;1.33;0.82;;;15.70;85.40;;;;;;5067358;28;20017;-74
2022/11/09 02:56:38;;;;;;;1.90;1.00;;;15.70;85.40;;;;;;5065790;28;20081;-75
2022/11/09 02:59:03;;;;;;;2.67;1.00;;;15.70;85.50;;;;;;5067256;28;20032;-73
2022/11/09 03:01:29;;;;;;;1.77;0.90;;;15.70;85.70;;;;;;5066822;28;20841;-74
2022/11/09 03:03:54;;;;;;;2.03;1.10;;;15.70;85.90;;;;;;5066965;28;20032;-74
2022/11/09 03:06:32;;;;;;;1.95;0.80;;;15.70;85.80;;;;;;5065746;28;20050;-74
2022/11/09 03:08:59;;;;;;;1.40;0.90;;;15.70;86.00;;;;;;5065764;28;20110;-74
2022/11/09 03:11:24;;;;;;;2.10;0.90;;;15.70;85.90;;;;;;5065018;28;20029;-74
2022/11/09 03:13:50;;;;;;;1.80;0.90;;;15.60;85.90;;;;;;5065503;28;20082;-74
2022/11/09 03:16:15;;;;;;;2.15;0.82;;;15.60;85.80;;;;;;5048057;28;20381;-74
2022/11/09 03:18:41;;;;;;;1.80;0.88;;;15.60;85.80;;;;;;5047582;28;20044;-74
2022/11/09 03:21:06;;;;;;;3.00;0.93;;;15.60;85.80;;;;;;5058885;28;20029;-74
2022/11/09 03:23:32;;;;;;;1.50;0.90;;;15.60;85.80;;;;;;5054798;28;20615;-74
2022/11/09 03:25:58;;;;;;;1.92;0.90;;;15.60;86.00;;;;;;5049113;28;20035;-74
2022/11/09 03:28:23;;;;;;;1.75;1.10;;;15.60;86.00;;;;;;5064341;28;20035;-73
2022/11/09 03:30:49;;;;;;;1.23;0.90;;;15.60;86.10;;;;;;5063472;28;20408;-74
2022/11/09 03:33:14;;;;;;;1.55;0.88;;;15.60;86.00;;;;;;5055943;28;20025;-74
2022/11/09 03:35:40;;;;;;;2.10;1.00;;;15.60;86.10;;;;;;5059222;28;20035;-73
2022/11/09 03:38:06;;;;;;;1.58;0.93;;;15.60;86.10;;;;;;5048118;28;20041;-74
2022/11/09 03:40:31;;;;;;;1.70;0.80;;;15.60;86.20;;;;;;5045085;28;20036;-74
2022/11/09 03:42:57;;;;;;;1.83;0.80;;;15.60;86.10;;;;;;5044838;28;20032;-74
2022/11/09 03:45:23;;;;;;;1.80;0.80;;;15.60;86.20;;;;;;5056113;28;20040;-73
2022/11/09 03:47:49;;;;;;;2.05;0.95;;;15.60;86.20;;;;;;5063379;28;20089;-74
2022/11/09 03:50:16;;;;;;;0.95;0.80;;;15.60;86.10;;;;;;5059237;28;20448;-74
2022/11/09 03:52:45;;;;;;;2.90;1.05;;;15.60;85.90;;;;;;5045894;28;20039;-74
2022/11/09 03:55:12;;;;;;;2.75;0.90;;;15.60;85.80;;;;;;5048676;28;20501;-74
2022/11/09 03:57:37;;;;;;;1.48;0.90;;;15.70;85.30;;;;;;5065398;28;20040;-74
2022/11/09 04:00:05;;;;;;;1.27;0.80;;;15.60;85.40;;;;;;5064703;28;20105;-74
2022/11/09 04:02:31;;;;;;;1.27;0.73;;;15.70;85.40;;;;;;5057922;28;20044;-75
2022/11/09 04:04:56;;;;;;;1.17;0.70;;;15.70;85.60;;;;;;5054700;28;20043;-74
2022/11/09 04:07:22;;;;;;;2.47;0.80;;;15.70;86.00;;;;;;5065607;28;20701;-74
2022/11/09 04:09:47;;;;;;;1.45;0.77;;;15.70;85.80;;;;;;5065446;28;20924;-74
2022/11/09 04:12:13;;;;;;;2.00;0.90;;;15.70;85.80;;;;;;5060348;28;20043;-74
2022/11/09 04:14:38;;;;;;;1.42;0.77;;;15.70;86.00;;;;;;5045342;28;20033;-73
2022/11/09 04:17:04;;;;;;;1.00;0.80;;;15.70;86.10;;;;;;5060748;28;20027;-73
2022/11/09 04:19:30;;;;;;;1.25;0.80;;;15.60;85.90;;;;;;5044582;28;20033;-75
2022/11/09 04:21:55;;;;;;;1.92;0.90;;;15.50;86.00;;;;;;5045694;28;20024;-73
2022/11/09 04:24:21;;;;;;;1.17;0.82;;;15.60;86.60;;;;;;5045704;28;20083;-74
2022/11/09 04:26:47;;;;;;;1.48;0.70;;;15.60;86.10;;;;;;5045423;28;20032;-74
2022/11/09 04:29:12;;;;;;;1.65;0.90;;;15.60;86.20;;;;;;5052719;28;20392;-73
2022/11/09 04:31:38;;;;;;;1.25;0.73;;;15.60;86.20;;;;;;5065610;28;20078;-73
2022/11/09 04:34:04;;;;;;;1.30;0.73;;;15.60;85.90;;;;;;5065333;28;20043;-74
2022/11/09 04:36:29;;;;;;;1.92;1.00;;;15.60;86.10;;;;;;5065599;28;20039;-74
2022/11/09 04:38:55;;;;;;;1.85;0.95;;;15.60;86.20;;;;;;5064368;28;20464;-74
2022/11/09 04:41:20;;;;;;;1.40;0.80;;;15.60;86.20;;;;;;5064225;28;20086;-74
2022/11/09 04:43:46;;;;;;;2.72;0.80;;;15.60;86.20;;;;;;5063967;28;20027;-74
2022/11/09 04:46:11;;;;;;;1.55;0.88;;;15.60;86.30;;;;;;5065524;28;20082;-74
2022/11/09 04:48:37;;;;;;;2.05;0.80;;;15.60;86.30;;;;;;5079385;28;20020;-73
2022/11/09 04:51:05;;;;;;;1.90;0.90;;;15.60;86.30;;;;;;5085529;28;20024;-74
2022/11/09 04:53:31;;;;;;;1.05;0.70;;;15.60;86.30;;;;;;5070651;28;20392;-74
2022/11/09 04:55:57;;;;;;;1.75;0.82;;;15.60;86.20;;;;;;5060652;28;20029;-73
2022/11/09 04:58:23;;;;;;;2.17;0.80;;;15.60;86.40;;;;;;5053481;28;20036;-73
2022/11/09 05:00:49;;;;;;;1.92;0.80;;;15.60;86.30;;;;;;5051332;28;20086;-74
2022/11/09 05:03:14;;;;;;;1.52;0.80;;;15.60;86.20;;;;;;5049826;28;20495;-73
2022/11/09 05:05:40;;;;;;;1.73;0.80;;;15.60;86.00;;;;;;5061949;28;20029;-73
2022/11/09 05:08:07;;;;;;;1.40;0.80;;;15.60;85.80;;;;;;5046186;28;20471;-74
2022/11/09 05:10:33;;;;;;;1.45;0.90;;;15.60;85.60;;;;;;5056636;28;20032;-74
2022/11/09 05:13:07;;;;;;;1.95;0.80;;;15.70;85.70;;;;;;5067074;28;20041;-74
2022/11/09 05:15:34;;;;;;;1.80;1.00;;;15.70;85.80;;;;;;5087824;28;20044;-72
2022/11/09 05:18:00;;;;;;;1.25;0.73;;;15.70;85.70;;;;;;5059080;28;20492;-74
2022/11/09 05:20:27;;;;;;;1.60;0.75;;;15.70;85.90;;;;;;5051626;28;20025;-75
2022/11/09 05:25:36;;;;;;;1.77;0.80;;;15.60;86.10;;;;;;5047643;28;20039;-75
2022/11/09 05:28:02;;;;;;;1.00;0.75;;;15.60;86.20;;;;;;5063663;28;20392;-71
2022/11/09 05:30:28;;;;;;;1.83;0.80;;;15.60;86.00;;;;;;5061282;28;20037;-72
2022/11/09 05:32:53;;;;;;;1.23;0.80;;;15.60;86.30;;;;;;5060286;28;20490;-73
2022/11/09 05:35:19;;;;;;;1.13;0.70;;;15.60;86.20;;;;;;5060305;28;20039;-72
2022/11/09 05:37:48;;;;;;;1.20;0.80;;;15.60;86.20;;;;;;5067480;28;20473;-73
2022/11/09 05:40:16;;;;;;;1.83;0.98;;;15.60;86.10;;;;;;5068158;28;20025;-72
2022/11/09 05:42:42;;;;;;;1.75;0.90;;;15.60;86.10;;;;;;5057239;28;20064;-73
2022/11/09 05:45:10;;;;;;;1.15;0.80;;;15.60;86.40;;;;;;5061483;28;20036;-74
2022/11/09 05:47:43;;;;;;;1.27;0.70;;;15.60;86.50;;;;;;5067465;28;20024;-72
2022/11/09 05:50:12;;;;;;;1.10;0.77;;;15.60;86.40;;;;;;5067670;28;20119;-74
2022/11/09 05:52:38;;;;;;;1.23;0.80;;;15.60;86.50;;;;;;5066925;28;20025;-71
2022/11/09 05:55:05;;;;;;;1.88;0.85;;;15.60;86.40;;;;;;5055725;28;20029;-72
2022/11/09 05:57:31;;;;;;;1.25;0.70;;;15.60;86.30;;;;;;5048737;28;20039;-78
2022/11/09 05:59:57;;;;;;;1.60;0.90;;;15.60;86.40;;;;;;5066656;28;20055;-73
2022/11/09 06:02:23;;;;;;;1.10;0.73;;;15.60;86.50;;;;;;5068278;28;20024;-76
2022/11/09 06:04:48;;;;;;;1.58;0.68;;;15.60;86.50;;;;;;5066637;28;20247;-75
2022/11/09 06:07:14;;;;;;;1.10;0.80;;;15.60;86.60;;;;;;5067926;28;20369;-74
2022/11/09 06:09:39;;;;;;;2.45;1.00;;;15.60;86.60;;;;;;5063490;28;20527;-75
2022/11/09 06:12:05;;;;;;;2.67;0.80;;;15.60;86.40;;;;;;5065870;28;20039;-76
2022/11/09 06:14:31;;;;;;;2.05;0.77;;;15.60;86.30;;;;;;5065896;28;20021;-75
2022/11/09 06:16:56;;;;;;;1.30;0.85;;;15.60;86.10;;;;;;5063460;28;20416;-74
2022/11/09 06:19:22;;;;;;;1.88;0.90;;;15.70;86.00;;;;;;5098267;28;20407;-76
2022/11/09 06:21:47;;;;;;;1.73;1.00;;;15.70;85.90;;;;;;5054667;28;20037;-73
2022/11/09 06:24:13;;;;;;;1.88;0.98;;;15.70;85.80;;;;;;5048466;28;20039;-73
2022/11/09 06:26:38;;;;;;;0.98;0.70;;;15.70;85.80;;;;;;5065216;28;20051;-74
2022/11/09 06:29:04;;;;;;;1.02;0.60;;;15.70;86.10;;;;;;5081272;28;20066;-73
2022/11/09 06:31:30;;;;;;;2.58;0.80;;;15.70;86.50;;;;;;5051008;28;20016;-73
2022/11/09 06:33:55;;;;;;;1.88;0.90;;;15.60;86.30;;;;;;5078554;28;20029;-72
2022/11/09 06:36:21;;;;;;;1.92;0.75;;;15.60;86.40;;;;;;5063625;28;20025;-74
2022/11/09 06:38:51;;;;;;;1.02;0.70;;;15.60;86.40;;;;;;5079705;28;20029;-72
2022/11/09 06:41:18;;;;;;;1.15;0.80;;;15.60;86.30;;;;;;5079274;28;20025;-74
2022/11/09 06:43:44;;;;;;;1.13;0.82;;;15.60;86.40;;;;;;5078514;28;20067;-73
2022/11/09 06:46:10;;;;;;;1.92;0.70;;;15.60;86.40;;;;;;5047173;28;20029;-74
2022/11/09 06:48:39;;;;;;;1.45;0.70;;;15.60;86.40;;;;;;5079521;28;20048;-73
2022/11/09 06:51:05;;;;;;;0.80;0.60;;;15.60;86.50;;;;;;5046507;28;20047;-74
2022/11/09 06:53:33;;;;;;;1.50;0.88;;;15.60;86.50;;;;;;5062667;28;20481;-74
2022/11/09 06:56:01;;;;;;;2.25;0.80;;;15.60;86.60;;;;;;5046696;28;20554;-73
2022/11/09 06:58:27;;;;;;;10.55;1.67;;;15.60;86.70;;;;;;5046684;28;20419;-75
2022/11/09 07:00:53;;;;;;;5.63;1.45;;;15.60;86.10;;;;;;5047123;28;20032;-73
2022/11/09 07:03:19;;;;;;;7.75;1.48;;;15.50;85.60;;;;;;5046990;28;20029;-75
2022/11/09 07:05:46;;;;;;;5.45;1.52;;;15.50;85.80;;;;;;5047720;28;20021;-74
2022/11/09 07:08:12;;;;;;;5.30;1.30;;;15.60;85.80;;;;;;5080360;28;20082;-72
2022/11/09 07:10:38;;;;;;;7.28;1.40;;;15.50;85.80;;;;;;5078493;28;20028;-73
2022/11/09 07:13:05;;;;;;;5.13;1.17;;;15.50;85.80;;;;;;5094256;28;20037;-74
2022/11/09 07:15:31;;;;;;;2.45;1.08;;;15.50;85.80;;;;;;5048801;28;20029;-73
2022/11/09 07:17:58;;;;;;;4.18;1.20;;;15.50;85.80;;;;;;5055152;28;20038;-74
2022/11/09 07:20:24;;;;;;;3.90;1.00;;;15.50;85.90;;;;;;5066444;28;20036;-73
2022/11/09 07:22:50;;;;;;;2.95;1.02;;;15.60;85.80;;;;;;5066090;28;20040;-73
2022/11/09 07:25:15;;;;;;;3.47;1.05;;;15.60;85.70;;;;;;5066360;28;20028;-73
2022/11/09 07:27:41;;;;;;;3.35;1.10;;;15.60;85.60;;;;;;5064857;28;20549;-73
2022/11/09 07:30:08;;;;;;;4.28;1.20;;;15.60;85.50;;;;;;5066264;28;20495;-72
2022/11/09 07:32:38;;;;;;;3.72;1.00;;;15.70;85.40;;;;;;5064209;28;20484;-74
2022/11/09 07:35:04;;;;;;;1.92;0.80;;;15.70;85.60;;;;;;5065640;28;20093;-73
2022/11/09 07:37:30;;;;;;;3.72;1.30;;;15.70;85.70;;;;;;5065433;28;20484;-74
2022/11/09 07:39:56;;;;;;;3.50;0.90;;;15.60;85.60;;;;;;5064234;28;20036;-72
2022/11/09 07:42:22;;;;;;;3.13;1.02;;;15.60;85.70;;;;;;5065549;28;20024;-73
2022/11/09 07:44:48;;;;;;;5.55;1.50;;;15.60;85.50;;;;;;5063693;28;20029;-73
2022/11/09 07:47:15;;;;;;;2.10;1.08;;;15.60;85.60;;;;;;5065948;28;20016;-73
2022/11/09 07:49:41;;;;;;;2.97;1.10;;;15.60;85.70;;;;;;5065553;28;20023;-73
2022/11/09 07:52:06;;;;;;;3.05;1.10;;;15.60;85.80;;;;;;5064257;28;20024;-72
2022/11/09 07:54:32;;;;;;;3.97;1.10;;;15.60;85.90;;;;;;5063934;28;20025;-72
2022/11/09 07:56:57;;;;;;;4.20;1.20;;;15.60;85.90;;;;;;5065553;28;20032;-72
2022/11/09 07:59:23;;;;;;;4.15;1.00;;;15.60;86.00;;;;;;5064306;28;20024;-73
2022/11/09 08:01:48;;;;;;;1.95;0.82;;;15.60;86.00;;;;;;5065367;28;20040;-72
2022/11/09 08:04:14;;;;;;;3.33;1.02;;;15.60;86.10;;;;;;5063851;28;20441;-73
2022/11/09 08:06:39;;;;;;;3.92;1.10;;;15.60;86.10;;;;;;5064841;28;20556;-73
2022/11/09 08:09:05;;;;;;;2.47;1.08;;;15.60;86.10;;;;;;5065473;28;20187;-72
2022/11/09 08:11:31;;;;;;;2.38;1.00;;;15.60;86.10;;;;;;5064327;28;20025;-73
2022/11/09 08:13:56;;;;;;;2.72;1.30;;;15.60;86.00;;;;;;5063793;28;20110;-75
2022/11/09 08:16:22;;;;;;;2.63;0.90;;;15.70;86.00;;;;;;5065342;28;20036;-74
2022/11/09 08:18:51;;;;;;;3.00;1.00;;;15.70;86.00;;;;;;5065475;28;20025;-73
2022/11/09 08:21:17;;;;;;;2.63;1.13;;;15.70;85.90;;;;;;5064157;28;20089;-73
2022/11/09 08:23:42;;;;;;;3.97;1.10;;;15.70;85.80;;;;;;5063569;28;20162;-73
2022/11/09 08:26:09;;;;;;;2.22;1.00;;;15.70;85.70;;;;;;5065269;28;20161;-72
2022/11/09 08:28:35;;;;;;;2.33;0.90;;;15.70;85.70;;;;;;5065627;28;20024;-74
2022/11/09 08:31:03;;;;;;;4.72;1.20;;;15.70;85.70;;;;;;5065693;28;20538;-74
2022/11/09 08:33:31;;;;;;;2.78;1.08;;;15.70;85.50;;;;;;5065639;28;20492;-74
2022/11/09 08:35:57;;;;;;;2.45;0.90;;;15.80;85.50;;;;;;5064016;28;20392;-74
2022/11/09 08:38:22;;;;;;;3.28;1.17;;;15.80;85.50;;;;;;5066065;28;20028;-73
2022/11/09 08:40:48;;;;;;;2.50;1.00;;;15.80;85.30;;;;;;5065697;28;20111;-73
2022/11/09 08:43:13;;;;;;;3.60;1.15;;;15.80;85.20;;;;;;5065569;28;20154;-75
2022/11/09 08:45:40;;;;;;;3.75;1.00;;;15.80;85.30;;;;;;5068482;28;20032;-74
2022/11/09 08:48:06;;;;;;;2.97;1.00;;;15.80;85.20;;;;;;5068464;28;20028;-73
2022/11/09 08:50:34;;;;;;;2.55;0.85;;;15.80;85.10;;;;;;5070219;28;20020;-73
2022/11/09 08:53:01;;;;;;;2.97;1.08;;;15.80;85.10;;;;;;5068533;28;20104;-73
2022/11/09 08:55:26;;;;;;;2.78;0.80;;;15.80;85.20;;;;;;5068624;28;20036;-74
2022/11/09 08:57:57;;;;;;;4.00;1.55;;;15.80;85.20;;;;;;5067476;28;20043;-73
2022/11/09 09:00:22;;;;;;;1.73;0.93;;;15.90;85.10;;;;;;5067528;28;20037;-74
2022/11/09 09:02:48;;;;;;;2.63;1.10;;;15.90;85.20;;;;;;5068254;28;20085;-74
2022/11/09 09:05:15;;;;;;;4.40;1.05;;;15.90;85.20;;;;;;5068067;28;20029;-73
2022/11/09 09:07:40;;;;;;;2.35;1.02;;;15.90;85.20;;;;;;5068482;28;20553;-74
2022/11/09 09:10:06;;;;;;;2.45;1.02;;;15.90;85.10;;;;;;5068553;28;20036;-74
2022/11/09 09:12:32;;;;;;;2.17;0.98;;;15.90;85.00;;;;;;5068044;28;20032;-74
2022/11/09 09:14:57;;;;;;;3.13;1.05;;;15.90;84.90;;;;;;5066865;28;20020;-74
2022/11/09 09:17:23;;;;;;;2.33;1.02;;;16.00;84.90;;;;;;5067082;28;20042;-75
2022/11/09 09:19:48;;;;;;;2.80;1.00;;;16.00;84.80;;;;;;5068456;28;20640;-73
2022/11/09 09:22:14;;;;;;;2.55;1.00;;;16.00;84.80;;;;;;5067517;28;20112;-74
2022/11/09 09:24:39;;;;;;;2.13;0.80;;;16.00;84.70;;;;;;5068305;28;20047;-74
2022/11/09 09:27:05;;;;;;;1.65;0.90;;;16.10;84.70;;;;;;5068508;28;20036;-74
2022/11/09 09:29:30;;;;;;;3.88;0.90;;;16.00;84.60;;;;;;5066780;28;20396;-74
2022/11/09 09:31:56;;;;;;;2.35;0.90;;;16.10;84.60;;;;;;5068033;28;20115;-74
2022/11/09 09:34:21;;;;;;;3.15;1.23;;;16.10;84.50;;;;;;5067535;28;20053;-74
2022/11/09 09:36:47;;;;;;;3.47;1.00;;;16.10;84.40;;;;;;5066596;28;20488;-72
2022/11/09 09:39:13;;;;;;;2.67;0.98;;;16.10;84.40;;;;;;5066358;28;20183;-73
2022/11/09 09:41:44;;;;;;;2.80;1.10;;;16.20;84.30;;;;;;5067818;28;20094;-74
2022/11/09 09:44:29;;;;;;;;;;;16.20;84.20;;;;;;5066859;28;20401;-73
2022/11/09 09:47:06;;;;;;;2.22;1.00;;;16.20;84.10;;;;;;5063085;28;19944;-73
2022/11/09 09:49:37;;;;;;;1.80;0.90;;;16.20;84.00;;;;;;5067859;28;20042;-74
2022/11/09 09:52:11;;;;;;;1.35;0.70;;;16.30;84.00;;;;;;5067878;28;20021;-73
2022/11/09 09:54:43;;;;;;;3.63;0.90;;;16.30;84.00;;;;;;5067415;28;20082;-74
2022/11/09 09:57:19;;;;;;;3.50;1.00;;;16.30;84.00;;;;;;5066000;28;20031;-75
2022/11/09 09:59:50;;;;;;;2.17;0.90;;;16.20;84.00;;;;;;5068557;28;20025;-77
2022/11/09 10:02:16;;;;;;;;;;;16.20;84.00;;;;;;5066988;28;20056;-74
2022/11/09 10:04:41;;;;;;;2.50;0.90;;;16.20;84.00;;;;;;5067515;28;19959;-74
2022/11/09 10:07:46;;;;;;;3.08;0.93;;;16.20;84.10;;;;;;5066725;28;20036;-74
2022/11/09 10:10:26;;;;;;;2.40;0.93;;;16.20;84.10;;;;;;5067062;28;20675;-73
2022/11/09 10:13:25;;;;;;;2.83;1.10;;;16.30;84.10;;;;;;5067613;28;20028;-74
2022/11/09 10:16:05;;;;;;;2.28;1.00;;;16.20;84.00;;;;;;5064321;28;20364;-74
2022/11/09 10:18:40;;;;;;;3.70;1.30;;;16.30;84.00;;;;;;5066148;28;20052;-75
2022/11/09 10:21:23;;;;;;;2.53;1.10;;;16.30;83.90;;;;;;5067254;28;20060;-74
2022/11/09 10:23:57;;;;;;;2.15;1.00;;;16.40;83.80;;;;;;5065374;28;20569;-74
2022/11/09 10:26:41;;;;;;;3.08;1.45;;;16.40;83.60;;;;;;5065634;28;20118;-74
2022/11/09 10:29:41;;;;;;;2.65;1.15;;;16.40;83.50;;;;;;5067152;28;20016;-74
2022/11/09 10:32:19;;;;;;;2.45;1.10;;;16.40;83.40;;;;;;5066918;28;20028;-74
2022/11/09 10:35:01;;;;;;;3.47;1.35;;;16.50;83.30;;;;;;5066680;28;20107;-74
2022/11/09 10:37:39;;;;;;;2.95;1.10;;;16.50;83.30;;;;;;5065588;28;20067;-75
2022/11/09 10:40:07;;;;;;;4.15;1.50;;;16.40;83.30;;;;;;5067020;28;20545;-74
2022/11/09 10:42:33;;;;;;;2.92;1.20;;;16.50;83.40;;;;;;5066594;28;20115;-74
2022/11/09 10:45:09;;;;;;;3.08;1.10;;;16.40;83.50;;;;;;5066900;28;20173;-74
2022/11/09 10:47:50;;;;;;;3.58;1.10;;;16.40;83.60;;;;;;5067525;28;20066;-74
2022/11/09 10:50:31;;;;;;;2.95;1.13;;;16.40;83.60;;;;;;5065496;28;20551;-74
2022/11/09 10:53:11;;;;;;;3.10;1.20;;;16.40;83.60;;;;;;5066563;28;20059;-76
2022/11/09 10:55:37;;;;;;;4.13;1.42;;;16.50;83.50;;;;;;5066667;28;20033;-74
2022/11/09 10:58:21;;;;;;;2.95;1.10;;;16.50;83.40;;;;;;5066208;28;20025;-73
2022/11/09 11:00:55;;;;;;;2.40;1.10;;;16.50;83.20;;;;;;5065133;28;20119;-74
2022/11/09 11:03:23;;;;;;;2.08;1.02;;;16.60;83.10;;;;;;5066685;28;20405;-75
2022/11/09 11:05:59;;;;;;;3.00;1.20;;;16.60;82.90;;;;;;5066584;28;20028;-74
2022/11/09 11:08:32;;;;;;;2.67;1.13;;;16.60;82.90;;;;;;5065600;28;20179;-74
2022/11/09 11:11:23;;;;;;;2.97;1.20;;;16.60;82.80;;;;;;5066697;28;20063;-75
2022/11/09 11:13:50;;;;;;;2.42;1.15;;;16.60;82.80;;;;;;5064900;28;20060;-74
2022/11/09 11:16:30;;;;;;;1.92;0.90;;;16.70;82.90;;;;;;5064819;28;20036;-75
2022/11/09 11:18:56;;;;;;;;;;;16.60;82.90;;;;;;5065322;28;20322;-74
2022/11/09 11:21:24;;;;;;;2.47;1.10;;;16.60;83.00;;;;;;5065220;28;19908;-75
2022/11/09 11:24:19;;;;;;;2.40;1.00;;;16.60;83.00;;;;;;5066053;28;20102;-75
2022/11/09 11:27:04;;;;;;;2.30;1.08;;;16.60;83.10;;;;;;5066437;28;20033;-74
2022/11/09 11:29:40;;;;;;;2.75;1.30;;;16.50;83.10;;;;;;5066258;28;20074;-76
2022/11/09 11:32:13;;;;;;;2.55;1.05;;;16.60;83.20;;;;;;5064826;28;20404;-75
2022/11/09 11:34:39;;;;;;;2.55;1.10;;;16.60;83.30;;;;;;5065418;28;20077;-75
2022/11/09 11:37:13;;;;;;;3.80;1.40;;;16.60;83.20;;;;;;5066002;28;20385;-75
2022/11/09 11:39:42;;;;;;;2.60;1.30;;;16.60;83.30;;;;;;5065795;28;20094;-74
2022/11/09 11:42:32;;;;;;;4.22;1.15;;;16.60;83.20;;;;;;5065963;28;20032;-76
2022/11/09 11:45:31;;;;;;;3.28;0.93;;;16.60;83.20;;;;;;5064204;28;20064;-74
2022/11/09 11:48:24;;;;;;;2.15;1.13;;;16.60;83.20;;;;;;5064410;28;20025;-75
2022/11/09 11:51:08;;;;;;;2.38;1.10;;;16.50;83.30;;;;;;5064531;28;20024;-75
2022/11/09 11:53:59;;;;;;;2.35;1.00;;;16.50;83.40;;;;;;5064418;28;20025;-75
2022/11/09 11:56:38;;;;;;;2.80;1.10;;;16.50;83.40;;;;;;5064621;28;20032;-73
2022/11/09 11:59:31;;;;;;;2.38;1.15;;;16.50;83.50;;;;;;5065537;28;20028;-74
2022/11/09 12:02:47;;;;;;;3.83;1.50;;;16.50;83.40;;;;;;5064705;28;20107;-75
2022/11/09 12:05:45;;;;;;;3.13;1.10;;;16.50;83.30;;;;;;5045310;28;20609;-74
2022/11/09 12:08:38;;;;;;;3.60;1.20;;;16.50;83.30;;;;;;5065397;28;20078;-74
2022/11/09 12:11:35;;;;;;;3.33;1.20;;;16.60;83.20;;;;;;5062527;28;20557;-74
2022/11/09 12:14:46;;;;;;;3.13;1.00;;;16.50;83.20;;;;;;5094115;22;20102;-76
2022/11/09 12:18:00;;;;;;;;;;;;;;;;;;;;;
2022/11/09 12:35:18;;;;;;;3.70;1.23;;;16.50;83.40;;;;;;5099583;28;20143;-76
2022/11/09 12:41:37;;;;;;;2.58;1.02;;;16.50;83.30;;;;;;5105557;28;20027;-75
2022/11/09 12:44:29;;;;;;;2.60;1.20;;;16.90;83.50;;;;;;5102423;27;20124;-75
2022/11/09 12:47:39;;;;;;;2.10;1.05;;;16.50;83.30;;;;;;5098530;28;20040;-75
2022/11/09 12:50:37;;;;;;;;;;;;;;;;;;;;;
2022/11/09 12:53:58;;;;;;;3.38;1.20;;;16.50;83.30;;;;;;5105182;28;20023;-75
2022/11/09 12:57:17;;;;;;;;;;;;;;;;;;;;;
2022/11/09 13:00:22;;;;;;;1.58;0.90;;;17.80;84.20;;;;;;5065699;28;20047;-75
2022/11/09 13:03:01;;;;;;;2.75;1.00;;;16.40;83.50;;;;;;5069750;28;20036;-75
2022/11/09 13:05:36;;;;;;;2.85;1.17;;;16.50;83.50;;;;;;5105491;28;20116;-75
2022/11/09 13:08:31;;;;;;;2.50;0.98;;;15.90;83.10;;;;;;5104529;28;20549;-76
2022/11/09 13:14:42;;;;;;;2.22;1.00;;;16.40;83.50;;;;;;5091707;28;20032;-76
2022/11/09 13:17:57;;;;;;;1.90;0.95;;;16.40;83.60;;;;;;5098447;28;20287;-76
2022/11/09 13:20:41;;;;;;;2.65;1.17;;;16.40;83.50;;;;;;5096323;28;20130;-75
2022/11/09 13:23:28;;;;;;;1.90;0.90;;;16.40;83.50;;;;;;5100669;28;20167;-76
2022/11/09 13:26:27;;;;;;;3.47;1.30;;;17.70;84.30;;;;;;5084133;28;20459;-75
2022/11/09 13:29:11;;;;;;;2.35;0.90;;;16.40;83.60;;;;;;5083896;28;20545;-75
2022/11/09 13:35:40;;;;;;;2.08;1.10;;;16.50;83.80;;;;;;5007961;28;20042;-77
2022/11/09 13:38:26;;;;;;;3.17;1.05;;;16.50;83.80;;;;;;5007516;28;20032;-74